Time;durP1;ratioP1;P1;durP2;ratioP2;P2;SDS_P1;SDS_P2;PMS_P1;PMS_P2;Temp;Humidity;BMP_temperature;BMP_pressure;BME280_temperature;BME280_humidity;BME280_pressure;Samples;Min_cycle;Max_cycle;Signal;HPM_P1;HPM_P2
2022/10/23 00:01:40;;;;;;;18.00;7.90;;;;;;;12.39;100.00;101290.22;5028281;28;20470;-87
2022/10/23 00:04:15;;;;;;;12.30;7.07;;;;;;;12.35;100.00;101291.41;5011317;28;20537;-87
2022/10/23 00:06:40;;;;;;;13.70;7.07;;;;;;;12.38;100.00;101288.53;5010967;28;20072;-86
2022/10/23 00:09:08;;;;;;;15.27;6.90;;;;;;;12.38;100.00;101285.91;5010025;28;20041;-87
2022/10/23 00:11:34;;;;;;;16.30;7.20;;;;;;;12.40;100.00;101278.72;5008833;28;20124;-86
2022/10/23 00:14:03;;;;;;;13.57;6.90;;;;;;;12.40;100.00;101283.16;5010037;28;20136;-87
2022/10/23 00:16:29;;;;;;;17.58;6.78;;;;;;;12.40;100.00;101281.34;5009842;28;20077;-86
2022/10/23 00:19:01;;;;;;;13.10;6.78;;;;;;;12.40;100.00;101277.88;5016683;28;20555;-86
2022/10/23 00:21:26;;;;;;;13.63;6.85;;;;;;;12.38;100.00;101283.25;5024837;28;20135;-86
2022/10/23 00:23:52;;;;;;;18.10;7.43;;;;;;;12.36;100.00;101287.81;5012688;28;20399;-86
2022/10/23 00:26:18;;;;;;;18.20;7.05;;;;;;;12.38;100.00;101279.78;5011023;28;20036;-86
2022/10/23 00:28:47;;;;;;;14.90;7.10;;;;;;;12.35;100.00;101288.78;5030517;28;20021;-86
2022/10/23 00:31:13;;;;;;;20.67;7.30;;;;;;;12.35;100.00;101285.28;5029820;28;20021;-86
2022/10/23 00:33:39;;;;;;;19.50;6.75;;;;;;;12.35;100.00;101277.38;5029972;28;20080;-86
2022/10/23 00:36:07;;;;;;;15.77;6.85;;;;;;;12.37;100.00;101278.09;5029003;28;20029;-87
2022/10/23 00:38:36;;;;;;;17.38;6.93;;;;;;;12.38;100.00;101285.06;4993895;28;20034;-87
2022/10/23 00:41:02;;;;;;;14.30;6.50;;;;;;;12.38;100.00;101280.63;4992030;28;20448;-87
2022/10/23 00:43:29;;;;;;;13.70;6.15;;;;;;;12.37;100.00;101271.03;5010579;28;20025;-86
2022/10/23 00:45:54;;;;;;;12.85;6.88;;;;;;;12.40;100.00;101273.44;4993026;28;20456;-86
2022/10/23 00:48:20;;;;;;;13.60;6.68;;;;;;;12.41;100.00;101269.88;5004141;28;20041;-86
2022/10/23 00:50:48;;;;;;;20.30;7.20;;;;;;;12.41;100.00;101272.50;5012798;28;20025;-87
2022/10/23 00:53:17;;;;;;;12.43;6.43;;;;;;;12.40;100.00;101273.44;5028929;28;20036;-86
2022/10/23 00:55:46;;;;;;;17.85;7.13;;;;;;;12.39;100.00;101277.03;4995903;28;20032;-87
2022/10/23 00:58:26;;;;;;;17.75;7.10;;;;;;;12.40;100.00;101276.06;5025110;28;20099;-86
2022/10/23 01:01:04;;;;;;;14.75;6.78;;;;;;;12.38;100.00;101267.44;5028618;28;20034;-87
2022/10/23 01:03:29;;;;;;;18.83;6.70;;;;;;;12.40;100.00;101268.16;5029826;28;20276;-87
2022/10/23 01:06:26;;;;;;;11.68;6.50;;;;;;;12.44;100.00;101268.81;5012898;28;20394;-87
2022/10/23 01:09:08;;;;;;;16.33;6.50;;;;;;;12.42;100.00;101265.44;5010282;28;20033;-86
2022/10/23 01:11:49;;;;;;;12.73;6.38;;;;;;;12.43;100.00;101267.13;5014973;28;20034;-86
2022/10/23 01:14:18;;;;;;;11.70;6.40;;;;;;;12.42;100.00;101273.34;4992385;28;20060;-87
2022/10/23 01:17:18;;;;;;;11.07;6.28;;;;;;;12.42;100.00;101261.00;5009225;28;20065;-86
2022/10/23 01:20:28;;;;;;;15.45;6.50;;;;;;;12.45;100.00;101260.75;5026830;28;20040;-86
2022/10/23 01:23:28;;;;;;;12.98;6.70;;;;;;;12.44;100.00;101259.09;5005656;28;20034;-87
2022/10/23 01:25:58;;;;;;;14.88;6.50;;;;;;;12.38;100.00;101259.50;5029235;28;20116;-86
2022/10/23 01:28:52;;;;;;;14.07;6.28;;;;;;;12.39;100.00;101252.44;5006355;28;20022;-87
2022/10/23 01:31:35;;;;;;;14.30;6.65;;;;;;;12.36;100.00;101250.03;5007571;28;20491;-87
2022/10/23 01:34:11;;;;;;;13.95;6.45;;;;;;;12.32;100.00;101246.78;4991684;28;20113;-87
2022/10/23 01:36:40;;;;;;;13.05;6.78;;;;;;;12.29;100.00;101244.38;5009075;28;20113;-86
2022/10/23 01:39:16;;;;;;;12.85;6.57;;;;;;;12.29;100.00;101244.38;5009556;28;20028;-86
2022/10/23 01:41:47;;;;;;;17.30;7.00;;;;;;;12.30;100.00;101240.78;5009541;28;20089;-86
2022/10/23 01:44:35;;;;;;;14.15;6.18;;;;;;;12.31;100.00;101220.50;5024311;28;20025;-86
2022/10/23 01:47:07;;;;;;;17.27;6.82;;;;;;;12.25;100.00;101227.09;4991497;28;20386;-87
2022/10/23 01:49:35;;;;;;;21.50;7.22;;;;;;;12.31;100.00;101231.06;5022210;28;20022;-86
2022/10/23 01:52:05;;;;;;;13.55;6.95;;;;;;;12.31;100.00;101223.16;5010769;28;20036;-87
2022/10/23 01:54:34;;;;;;;15.77;6.50;;;;;;;12.26;100.00;101222.66;5029251;28;20029;-86
2022/10/23 01:57:02;;;;;;;16.33;6.68;;;;;;;12.25;100.00;101221.81;5029136;28;20026;-86
2022/10/23 01:59:35;;;;;;;12.40;6.38;;;;;;;12.23;100.00;101221.09;5029405;28;20393;-86
2022/10/23 02:02:03;;;;;;;11.75;6.28;;;;;;;12.18;100.00;101223.25;5027895;28;20103;-86
2022/10/23 02:05:01;;;;;;;13.10;6.30;;;;;;;12.20;100.00;101226.59;5023143;28;20029;-86
2022/10/23 02:07:26;;;;;;;11.98;6.38;;;;;;;12.14;100.00;101221.78;4997688;28;20405;-86
2022/10/23 02:09:52;;;;;;;16.17;7.18;;;;;;;12.10;100.00;101220.34;5011397;28;20140;-86
2022/10/23 02:12:39;;;;;;;13.02;6.07;;;;;;;12.11;100.00;101227.28;5011376;28;20026;-86
2022/10/23 02:15:14;;;;;;;16.00;6.90;;;;;;;12.07;100.00;101223.22;4996054;28;20501;-86
2022/10/23 02:17:57;;;;;;;16.83;7.75;;;;;;;12.02;100.00;101218.28;5012049;28;20125;-87
2022/10/23 02:20:31;;;;;;;15.65;7.00;;;;;;;11.99;100.00;101213.19;5031582;28;20540;-86
2022/10/23 02:23:03;;;;;;;14.52;7.00;;;;;;;12.00;100.00;101219.31;5034687;28;20029;-86
2022/10/23 02:25:57;;;;;;;15.47;7.43;;;;;;;12.03;100.00;101212.03;5022698;28;20032;-86
2022/10/23 02:28:27;;;;;;;16.23;7.57;;;;;;;12.00;100.00;101203.50;5015281;28;20034;-86
2022/10/23 02:30:56;;;;;;;14.52;7.18;;;;;;;12.03;100.00;101206.78;5034396;28;20025;-86
2022/10/23 02:33:22;;;;;;;19.33;7.43;;;;;;;12.06;100.00;101200.44;5033882;28;20370;-86
2022/10/23 02:35:48;;;;;;;16.80;7.43;;;;;;;12.04;100.00;101200.53;5037458;28;20033;-86
2022/10/23 02:38:34;;;;;;;15.18;7.55;;;;;;;12.09;100.00;101197.56;5002664;28;20030;-87
2022/10/23 02:41:29;;;;;;;16.40;7.93;;;;;;;12.09;100.00;101185.22;5020457;28;20112;-86
2022/10/23 02:44:06;;;;;;;11.50;7.50;;;;;;;12.10;100.00;101167.59;5037690;28;20089;-87
2022/10/23 02:46:50;;;;;;;16.25;7.55;;;;;;;12.14;100.00;101159.31;5039142;28;20026;-86
2022/10/23 02:49:56;;;;;;;15.60;7.63;;;;;;;12.15;100.00;101153.09;5022557;28;20329;-86
2022/10/23 02:52:40;;;;;;;12.23;7.38;;;;;;;12.14;100.00;101150.56;5020166;28;20075;-86
2022/10/23 02:55:24;;;;;;;14.60;7.35;;;;;;;12.12;100.00;101144.56;5039760;28;20018;-86
2022/10/23 02:57:58;;;;;;;13.55;7.60;;;;;;;12.11;100.00;101137.63;5039661;28;20030;-86
2022/10/23 03:00:24;;;;;;;17.30;7.47;;;;;;;12.11;100.00;101130.53;5022342;28;20022;-86
2022/10/23 03:02:56;;;;;;;16.50;7.32;;;;;;;12.12;100.00;101132.22;5041434;28;20052;-86
2022/10/23 03:05:29;;;;;;;14.98;7.53;;;;;;;12.13;100.00;101125.16;5011775;28;20160;-86
2022/10/23 03:07:58;;;;;;;14.45;7.38;;;;;;;12.12;100.00;101120.84;5009265;28;20367;-86
2022/10/23 03:10:24;;;;;;;13.60;7.80;;;;;;;12.12;100.00;101123.47;5001349;28;20026;-87
2022/10/23 03:12:49;;;;;;;15.30;7.60;;;;;;;12.11;100.00;101113.88;5000025;28;20446;-85
2022/10/23 03:15:16;;;;;;;13.50;7.78;;;;;;;12.11;100.00;101119.16;5018195;28;20069;-87
2022/10/23 03:17:42;;;;;;;15.15;7.97;;;;;;;12.11;100.00;101108.59;5002759;28;20030;-86
2022/10/23 03:20:11;;;;;;;13.65;7.70;;;;;;;12.11;100.00;101109.44;5033289;28;20474;-86
2022/10/23 03:22:37;;;;;;;13.68;7.70;;;;;;;12.10;100.00;101106.91;5013729;28;20048;-86
2022/10/23 03:25:03;;;;;;;14.40;8.25;;;;;;;12.08;100.00;101109.69;5030748;28;20025;-86
2022/10/23 03:27:28;;;;;;;15.40;7.43;;;;;;;12.05;100.00;101103.78;5031696;28;20036;-86
2022/10/23 03:29:56;;;;;;;12.45;7.40;;;;;;;12.05;100.00;101104.63;5031685;28;20055;-87
2022/10/23 03:32:21;;;;;;;17.20;8.00;;;;;;;12.08;100.00;101103.56;5032107;28;20398;-87
2022/10/23 03:34:47;;;;;;;14.98;7.80;;;;;;;12.05;100.00;101098.53;5032047;28;20018;-86
2022/10/23 03:37:12;;;;;;;17.63;8.25;;;;;;;12.07;100.00;101099.25;5030543;28;20033;-86
2022/10/23 03:39:38;;;;;;;13.10;7.88;;;;;;;12.09;100.00;101099.97;5014097;28;20025;-86
2022/10/23 03:42:03;;;;;;;11.60;8.02;;;;;;;12.08;100.00;101090.38;5031119;28;20320;-86
2022/10/23 03:44:30;;;;;;;13.40;8.05;;;;;;;12.07;100.00;101092.16;5011731;28;20291;-86
2022/10/23 03:46:58;;;;;;;28.00;8.05;;;;;;;12.09;100.00;101087.63;5013706;28;20037;-86
2022/10/23 03:49:24;;;;;;;15.00;8.25;;;;;;;12.11;100.00;101087.50;5002697;28;20069;-86
2022/10/23 03:51:51;;;;;;;15.27;8.02;;;;;;;12.13;100.00;101081.16;5010823;28;20060;-86
2022/10/23 03:54:25;;;;;;;14.88;8.02;;;;;;;12.13;100.00;101073.22;4993883;28;20370;-86
2022/10/23 03:56:52;;;;;;;15.40;8.40;;;;;;;12.14;100.00;101080.19;5015106;28;20040;-86
2022/10/23 03:59:17;;;;;;;15.43;8.20;;;;;;;12.14;100.00;101071.44;5030206;28;20033;-86
2022/10/23 04:01:43;;;;;;;13.38;7.85;;;;;;;12.16;100.00;101069.53;5020687;28;20041;-86
2022/10/23 04:04:08;;;;;;;14.48;7.43;;;;;;;12.16;100.00;101064.25;5030717;28;20024;-86
2022/10/23 04:06:34;;;;;;;11.55;8.02;;;;;;;12.16;100.00;101056.34;5031325;28;20112;-86
2022/10/23 04:08:59;;;;;;;18.40;8.25;;;;;;;12.15;100.00;101049.38;5031529;28;20111;-87
2022/10/23 04:11:25;;;;;;;14.68;7.90;;;;;;;12.17;100.00;101043.03;5030672;28;20036;-87
2022/10/23 04:13:50;;;;;;;12.20;7.85;;;;;;;12.15;100.00;101047.56;5013939;28;20254;-86
2022/10/23 04:16:15;;;;;;;13.30;7.82;;;;;;;12.13;100.00;101046.03;5029930;28;20041;-86
2022/10/23 04:18:41;;;;;;;11.70;7.38;;;;;;;12.15;100.00;101036.19;5006615;28;20486;-87
2022/10/23 04:21:07;;;;;;;17.17;7.70;;;;;;;12.13;100.00;101038.94;5011288;28;20568;-87
2022/10/23 04:23:35;;;;;;;12.70;7.38;;;;;;;12.13;100.00;101053.94;5011613;28;20486;-87
2022/10/23 04:26:00;;;;;;;15.38;8.13;;;;;;;12.14;100.00;101061.72;5028934;28;20033;-87
2022/10/23 04:28:26;;;;;;;14.02;7.93;;;;;;;12.13;100.00;101051.28;5031251;28;20474;-87
2022/10/23 04:30:52;;;;;;;15.20;8.23;;;;;;;12.10;100.00;101047.09;5013279;28;20112;-87
2022/10/23 04:33:18;;;;;;;13.57;7.85;;;;;;;12.11;100.00;101055.84;5010425;28;20060;-87
2022/10/23 04:35:44;;;;;;;15.63;7.60;;;;;;;12.11;100.00;101053.22;5031203;28;20113;-87
2022/10/23 04:38:12;;;;;;;11.93;7.13;;;;;;;12.11;100.00;101050.56;5030383;28;20460;-88
2022/10/23 04:40:37;;;;;;;16.20;7.82;;;;;;;12.13;100.00;101044.22;5030232;28;20059;-87
2022/10/23 04:43:03;;;;;;;11.77;7.18;;;;;;;12.13;100.00;101043.38;5030494;28;20466;-87
2022/10/23 04:45:29;;;;;;;12.55;7.30;;;;;;;12.13;100.00;101038.09;5012793;28;20341;-87
2022/10/23 04:47:55;;;;;;;13.18;7.80;;;;;;;12.17;100.00;101034.28;5030051;28;20368;-87
2022/10/23 04:50:21;;;;;;;15.15;7.38;;;;;;;12.16;100.00;101043.16;5026797;28;20021;-87
2022/10/23 04:52:47;;;;;;;13.85;7.68;;;;;;;12.16;100.00;101032.59;5030332;28;20056;-85
2022/10/23 04:55:12;;;;;;;12.15;7.13;;;;;;;12.15;100.00;101030.91;5029387;28;20021;-88
2022/10/23 04:57:37;;;;;;;12.32;7.32;;;;;;;12.15;100.00;101030.91;5030530;28;20049;-87
2022/10/23 05:00:05;;;;;;;14.98;7.45;;;;;;;12.15;100.00;101025.63;5006856;28;20038;-87
2022/10/23 05:02:31;;;;;;;12.32;7.35;;;;;;;12.14;100.00;101019.53;4996309;28;20041;-87
2022/10/23 05:04:56;;;;;;;13.05;7.47;;;;;;;12.14;100.00;101022.16;5028503;28;20026;-88
2022/10/23 05:07:21;;;;;;;18.65;7.75;;;;;;;12.15;100.00;101021.19;5012276;28;20074;-88
2022/10/23 05:09:47;;;;;;;15.68;7.75;;;;;;;12.13;100.00;101017.84;5030611;28;20029;-88
2022/10/23 05:12:12;;;;;;;13.38;7.35;;;;;;;12.16;100.00;101019.41;5030067;28;20029;-88
2022/10/23 05:14:37;;;;;;;13.40;7.60;;;;;;;12.14;100.00;101023.97;5011890;28;20021;-87
2022/10/23 05:17:10;;;;;;;17.80;7.95;;;;;;;12.17;100.00;101023.72;5011163;28;20072;-88
2022/10/23 05:19:39;;;;;;;;;;;;;;;12.26;100.00;101011.59;5027466;28;20037;-87
2022/10/23 05:22:05;;;;;;;12.68;6.95;;;;;;;12.19;100.00;101006.81;5028785;28;20361;-87
2022/10/23 05:24:31;;;;;;;11.55;7.60;;;;;;;12.20;100.00;101012.94;5014847;28;20032;-88
2022/10/23 05:26:56;;;;;;;14.25;7.78;;;;;;;12.23;100.00;101017.97;5030072;28;20029;-88
2022/10/23 05:29:22;;;;;;;12.43;7.93;;;;;;;12.23;100.00;101007.41;5011832;28;20417;-87
2022/10/23 05:31:53;;;;;;;18.67;7.22;;;;;;;12.23;100.00;101002.13;5030620;28;20060;-88
2022/10/23 05:34:22;;;;;;;11.52;7.22;;;;;;;12.25;100.00;101005.50;5012027;28;20022;-87
2022/10/23 05:36:48;;;;;;;10.18;6.80;;;;;;;12.24;100.00;100991.47;5029746;28;20112;-88
2022/10/23 05:39:13;;;;;;;14.23;7.32;;;;;;;12.23;100.00;100988.94;4995484;28;20473;-88
2022/10/23 05:41:39;;;;;;;10.98;7.00;;;;;;;12.28;100.00;100993.84;5011992;28;20095;-87
2022/10/23 05:44:05;;;;;;;14.50;7.00;;;;;;;12.26;100.00;100998.41;5010701;28;20033;-88
2022/10/23 05:46:30;;;;;;;16.75;7.72;;;;;;;12.24;100.00;100990.63;5029167;28;20021;-88
2022/10/23 05:48:58;;;;;;;12.13;6.88;;;;;;;12.27;100.00;100995.66;5029021;28;20041;-88
2022/10/23 05:51:24;;;;;;;13.95;7.38;;;;;;;12.28;100.00;100996.50;5009673;28;20032;-88
2022/10/23 05:53:51;;;;;;;14.75;7.32;;;;;;;12.27;100.00;100989.53;5011977;28;20033;-88
2022/10/23 05:56:17;;;;;;;11.95;7.28;;;;;;;12.25;100.00;100987.03;5010554;28;20063;-88
2022/10/23 05:58:43;;;;;;;11.35;6.55;;;;;;;12.27;100.00;100987.75;5029606;28;20052;-88
2022/10/23 06:01:13;;;;;;;12.43;6.05;;;;;;;12.28;100.00;100984.13;5029260;28;20501;-88
2022/10/23 06:03:39;;;;;;;11.30;6.50;;;;;;;12.32;100.00;100979.47;5011219;28;20029;-88
2022/10/23 06:06:06;;;;;;;12.88;6.40;;;;;;;12.32;100.00;100972.38;4992474;28;20033;-88
2022/10/23 06:08:32;;;;;;;10.98;6.60;;;;;;;12.33;100.00;100971.41;5020618;28;20393;-88
2022/10/23 06:10:57;;;;;;;13.00;7.15;;;;;;;12.34;100.00;100973.09;5010080;28;20026;-88
2022/10/23 06:13:23;;;;;;;11.85;6.72;;;;;;;12.35;100.00;100964.22;5011645;28;20017;-88
2022/10/23 06:15:49;;;;;;;18.75;6.97;;;;;;;12.36;100.00;100965.91;5029261;28;20536;-88
2022/10/23 06:18:14;;;;;;;14.98;7.20;;;;;;;12.38;100.00;100969.25;5008602;28;20397;-88
2022/10/23 06:20:40;;;;;;;12.35;6.35;;;;;;;12.39;100.00;100970.09;5029331;28;20033;-88
2022/10/23 06:23:06;;;;;;;15.65;7.20;;;;;;;12.39;100.00;100962.16;5029383;28;20496;-88
2022/10/23 06:25:31;;;;;;;12.88;6.68;;;;;;;12.38;100.00;100960.50;5028634;28;20428;-88
2022/10/23 06:27:57;;;;;;;11.05;6.53;;;;;;;12.40;100.00;100963.84;5029256;28;20026;-88
2022/10/23 06:30:22;;;;;;;11.98;6.53;;;;;;;12.40;100.00;100962.06;5029648;28;20034;-88
2022/10/23 06:32:48;;;;;;;10.95;6.65;;;;;;;12.39;100.00;100949.81;5029417;28;20037;-88
2022/10/23 06:35:13;;;;;;;14.00;6.57;;;;;;;12.43;100.00;100945.16;5012812;28;20037;-89
2022/10/23 06:37:39;;;;;;;11.38;6.30;;;;;;;12.46;100.00;100940.47;4992698;28;20049;-88
2022/10/23 06:40:06;;;;;;;8.95;6.22;;;;;;;12.47;100.00;100944.78;5014030;28;20052;-88
2022/10/23 06:42:32;;;;;;;10.57;5.75;;;;;;;12.48;100.00;100938.56;4992223;28;20128;-88
2022/10/23 06:44:57;;;;;;;10.45;6.00;;;;;;;12.50;100.00;100926.06;4991890;28;20117;-88
2022/10/23 06:47:22;;;;;;;12.98;6.25;;;;;;;12.54;100.00;100934.56;5009022;28;20022;-88
2022/10/23 06:49:47;;;;;;;12.27;5.78;;;;;;;12.55;100.00;100923.88;5022156;28;20044;-88
2022/10/23 06:52:13;;;;;;;12.38;6.07;;;;;;;12.59;100.00;100926.28;5010870;28;20469;-88
2022/10/23 06:54:38;;;;;;;14.15;6.50;;;;;;;12.62;100.00;100928.66;5028197;28;20131;-87
2022/10/23 06:57:03;;;;;;;11.45;5.88;;;;;;;12.61;100.00;100927.81;5011253;28;20120;-86
2022/10/23 06:59:29;;;;;;;12.63;5.95;;;;;;;12.65;100.00;100931.91;5012312;28;20099;-86
2022/10/23 07:01:54;;;;;;;15.25;5.82;;;;;;;12.66;100.00;100920.38;5019799;28;20029;-87
2022/10/23 07:04:19;;;;;;;9.70;6.15;;;;;;;12.69;100.00;100920.13;5021371;28;20026;-87
2022/10/23 07:06:45;;;;;;;9.10;4.95;;;;;;;12.72;100.00;100929.59;5029818;28;20061;-87
2022/10/23 07:09:10;;;;;;;8.18;5.45;;;;;;;12.73;100.00;100931.25;5030107;28;20032;-87
2022/10/23 07:11:36;;;;;;;11.60;5.63;;;;;;;12.77;100.00;100927.41;5019635;28;20036;-87
2022/10/23 07:14:01;;;;;;;12.65;5.20;;;;;;;12.79;100.00;100917.56;5015228;28;20044;-87
2022/10/23 07:16:27;;;;;;;10.88;5.13;;;;;;;12.81;100.00;100915.66;5029943;28;20453;-86
2022/10/23 07:18:58;;;;;;;12.00;5.25;;;;;;;12.84;100.00;100920.69;5032180;28;20086;-87
2022/10/23 07:21:28;;;;;;;8.75;4.90;;;;;;;12.86;100.00;100921.41;5013226;28;20025;-87
2022/10/23 07:23:53;;;;;;;9.38;5.40;;;;;;;12.87;100.00;100907.22;5031286;28;20393;-87
2022/10/23 07:26:19;;;;;;;14.93;5.38;;;;;;;12.90;100.00;100909.63;5013671;28;20021;-87
2022/10/23 07:28:47;;;;;;;10.63;5.07;;;;;;;12.94;100.00;100907.56;5015471;28;20521;-86
2022/10/23 07:31:13;;;;;;;12.18;5.18;;;;;;;12.98;100.00;100908.97;5013842;28;20032;-87
2022/10/23 07:33:38;;;;;;;10.18;5.35;;;;;;;13.02;100.00;100910.38;5002629;28;20037;-86
2022/10/23 07:36:05;;;;;;;9.80;4.38;;;;;;;13.05;100.00;100905.69;5010869;28;20377;-87
2022/10/23 07:38:30;;;;;;;9.80;4.68;;;;;;;13.09;100.00;100900.97;5019047;28;20029;-87
2022/10/23 07:40:58;;;;;;;10.73;4.75;;;;;;;13.10;100.00;100895.56;5015788;28;20537;-84
2022/10/23 07:43:24;;;;;;;11.88;4.50;;;;;;;13.13;100.00;100897.94;5022084;28;20049;-84
2022/10/23 07:45:50;;;;;;;10.43;4.30;;;;;;;13.18;100.00;100906.34;5013822;28;20026;-87
2022/10/23 07:48:16;;;;;;;12.43;4.35;;;;;;;13.21;100.00;100899.13;5017158;28;20052;-87
2022/10/23 07:50:41;;;;;;;7.78;4.43;;;;;;;13.23;100.00;100891.94;5030547;28;20056;-87
2022/10/23 07:53:16;;;;;;;12.63;4.47;;;;;;;13.29;100.00;100896.72;5031850;28;20140;-88
2022/10/23 07:55:42;;;;;;;10.18;4.43;;;;;;;13.33;100.00;100892.84;5031390;28;20032;-87
2022/10/23 07:58:08;;;;;;;8.40;4.07;;;;;;;13.34;100.00;100898.00;5006443;28;20029;-87
2022/10/23 08:00:34;;;;;;;8.05;3.80;;;;;;;13.38;100.00;100898.56;4994873;28;20025;-86
2022/10/23 08:02:59;;;;;;;7.18;3.70;;;;;;;13.43;100.00;100891.09;5011161;28;20097;-87
2022/10/23 08:05:24;;;;;;;14.32;4.13;;;;;;;13.48;100.00;100895.00;5004381;28;20037;-87
2022/10/23 08:07:50;;;;;;;6.80;3.75;;;;;;;13.53;100.00;100891.97;5012035;28;20056;-87
2022/10/23 08:10:15;;;;;;;8.68;3.75;;;;;;;13.57;100.00;100890.72;5016653;28;20022;-87
2022/10/23 08:12:41;;;;;;;9.32;4.00;;;;;;;13.62;100.00;100883.28;5030958;28;20021;-80
2022/10/23 08:15:07;;;;;;;9.85;4.13;;;;;;;13.67;100.00;100886.34;5028981;28;20466;-89
2022/10/23 08:17:32;;;;;;;13.82;4.00;;;;;;;13.72;100.00;100888.59;4993209;28;20048;-89
2022/10/23 08:19:57;;;;;;;15.90;4.45;;;;;;;13.73;100.00;100885.81;5028858;28;20404;-88
2022/10/23 08:22:23;;;;;;;7.43;3.90;;;;;;;13.80;100.00;100875.53;5031539;28;20435;-88
2022/10/23 08:24:48;;;;;;;9.48;4.10;;;;;;;13.84;100.00;100886.69;5029826;28;20034;-88
2022/10/23 08:27:13;;;;;;;7.97;4.22;;;;;;;13.87;100.00;100875.84;5020374;28;20063;-89
2022/10/23 08:29:39;;;;;;;9.57;4.32;;;;;;;13.91;100.00;100882.53;4994143;28;20026;-88
2022/10/23 08:32:04;;;;;;;9.93;4.18;;;;;;;13.94;100.00;100877.81;4992753;28;20033;-88
2022/10/23 08:34:30;;;;;;;12.45;4.25;;;;;;;13.96;100.00;100872.38;5021937;28;20400;-86
2022/10/23 08:36:58;;;;;;;7.50;4.57;;;;;;;13.97;100.00;100871.41;5031514;28;20026;-86
2022/10/23 08:39:23;;;;;;;8.20;4.40;;;;;;;13.99;100.00;100866.81;5026228;28;20021;-86
2022/10/23 08:41:51;;;;;;;10.88;4.35;;;;;;;14.01;100.00;100862.25;5013089;28;20027;-85
2022/10/23 08:44:44;;;;;;;10.30;4.60;;;;;;;14.01;100.00;100852.50;5028469;28;20104;-85
2022/10/23 08:47:38;;;;;;;9.10;4.80;;;;;;;14.04;100.00;100859.34;5029054;28;20021;-85
2022/10/23 08:50:20;;;;;;;9.50;4.50;;;;;;;14.06;100.00;100860.03;5010645;28;20029;-86
2022/10/23 08:52:56;;;;;;;12.05;4.53;;;;;;;14.09;100.00;100854.47;5027976;28;20033;-85
2022/10/23 08:55:42;;;;;;;10.23;4.80;;;;;;;14.13;100.00;100855.03;5028997;28;20030;-85
2022/10/23 08:58:17;;;;;;;13.30;4.60;;;;;;;14.15;100.00;100859.22;5030148;28;20021;-85
2022/10/23 09:00:45;;;;;;;8.63;4.60;;;;;;;14.17;100.00;100856.44;5011737;28;20025;-85
2022/10/23 09:03:12;;;;;;;11.02;4.85;;;;;;;14.20;100.00;100857.00;5028421;28;20032;-87
2022/10/23 09:06:02;;;;;;;8.52;4.07;;;;;;;14.24;100.00;100839.88;5013896;28;20075;-85
2022/10/23 09:08:47;;;;;;;10.50;4.60;;;;;;;14.25;100.00;100832.75;5009998;28;20041;-85
2022/10/23 09:11:18;;;;;;;10.23;4.95;;;;;;;14.27;100.00;100826.34;5014721;28;20056;-86
2022/10/23 09:14:05;;;;;;;12.95;4.57;;;;;;;14.33;100.00;100825.81;5009221;28;20053;-85
2022/10/23 09:17:08;;;;;;;8.82;4.65;;;;;;;14.41;100.00;100828.63;5011651;28;20609;-85
2022/10/23 09:19:33;;;;;;;9.32;4.65;;;;;;;14.45;100.00;100817.78;5028326;28;20033;-85
2022/10/23 09:21:59;;;;;;;9.23;4.25;;;;;;;14.50;100.00;100815.56;5023939;28;20018;-86
2022/10/23 09:24:27;;;;;;;9.32;4.38;;;;;;;14.53;100.00;100813.47;5012944;28;20040;-85
2022/10/23 09:26:53;;;;;;;10.38;4.70;;;;;;;14.56;100.00;100801.75;5030368;28;20063;-85
2022/10/23 09:29:34;;;;;;;11.98;5.00;;;;;;;14.56;100.00;100805.22;5029484;28;20017;-85
2022/10/23 09:32:02;;;;;;;9.07;4.50;;;;;;;14.61;100.00;100807.47;5012066;28;20029;-86
2022/10/23 09:34:31;;;;;;;8.88;4.10;;;;;;;14.62;100.00;100801.19;5029194;28;20378;-86
2022/10/23 09:37:21;;;;;;;10.00;4.22;;;;;;;14.65;100.00;100793.78;5029999;28;20032;-85
2022/10/23 09:39:46;;;;;;;9.15;4.28;;;;;;;14.67;100.00;100788.34;5025610;28;20045;-86
2022/10/23 09:42:23;;;;;;;9.32;4.05;;;;;;;14.71;100.00;100776.50;5025549;28;20026;-85
2022/10/23 09:44:51;;;;;;;10.70;4.20;;;;;;;14.73;100.00;100782.47;5002391;28;20032;-85
2022/10/23 09:47:23;;;;;;;10.95;4.13;;;;;;;14.78;100.00;100788.19;5014550;28;20121;-85
2022/10/23 09:49:53;;;;;;;8.70;4.20;;;;;;;14.81;99.57;100785.28;5009833;28;20033;-85
2022/10/23 09:52:28;;;;;;;9.07;4.50;;;;;;;14.81;100.00;100774.69;5013165;28;20052;-85
2022/10/23 09:55:00;;;;;;;8.25;4.15;;;;;;;14.86;99.64;100769.78;5020039;28;20127;-85
2022/10/23 09:57:38;;;;;;;10.15;4.20;;;;;;;14.91;99.37;100764.91;5023383;28;20536;-85
2022/10/23 10:00:16;;;;;;;12.80;4.97;;;;;;;14.95;99.33;100763.63;5029254;28;20025;-85
2022/10/23 10:02:53;;;;;;;10.13;4.13;;;;;;;15.00;98.71;100750.78;5028682;28;20029;-87
2022/10/23 10:05:36;;;;;;;10.77;4.78;;;;;;;15.05;99.32;100740.59;5029292;28;20029;-85
2022/10/23 10:08:13;;;;;;;;;;;;;;;15.12;100.00;100743.47;5021851;28;20116;-86
2022/10/23 10:10:46;;;;;;;12.48;4.75;;;;;;;15.10;98.98;100734.84;5013406;28;20388;-85
2022/10/23 10:13:38;;;;;;;14.05;4.07;;;;;;;15.13;98.48;100728.41;5021191;28;20098;-85
2022/10/23 10:16:39;;;;;;;9.40;4.25;;;;;;;15.15;98.33;100714.03;5026444;28;20060;-85
2022/10/23 10:19:10;;;;;;;8.00;4.10;;;;;;;15.18;97.75;100721.69;4985385;28;20555;-86
2022/10/23 10:21:47;;;;;;;10.38;3.90;;;;;;;15.20;97.87;100713.59;5001960;28;20052;-86
2022/10/23 10:24:33;;;;;;;9.35;3.88;;;;;;;15.25;97.76;100706.06;5028308;28;20029;-88
2022/10/23 10:27:28;;;;;;;9.30;3.33;;;;;;;15.29;97.21;100715.38;5029712;28;20033;-88
2022/10/23 10:30:09;;;;;;;8.88;3.67;;;;;;;15.36;97.05;100719.94;5013557;28;20029;-88
2022/10/23 10:32:47;;;;;;;15.20;3.88;;;;;;;15.42;96.90;100717.69;5016345;28;20037;-86
2022/10/23 10:35:24;;;;;;;8.02;3.42;;;;;;;15.46;95.92;100719.88;5022051;28;20029;-88
2022/10/23 10:38:00;;;;;;;11.45;3.47;;;;;;;15.54;96.08;100706.72;5034202;28;20036;-87
2022/10/23 10:40:32;;;;;;;8.15;3.10;;;;;;;15.63;95.02;100705.03;5033845;28;20028;-87
2022/10/23 10:43:34;;;;;;;10.82;3.63;;;;;;;15.76;95.34;100709.97;5013198;28;20051;-87
2022/10/23 10:46:15;;;;;;;8.32;3.55;;;;;;;15.84;93.79;100694.13;5019581;28;20033;-87
2022/10/23 10:48:50;;;;;;;9.57;3.30;;;;;;;15.94;93.36;100700.19;5029496;28;20505;-87
2022/10/23 10:51:33;;;;;;;5.55;2.90;;;;;;;16.05;93.15;100689.38;5015140;28;20355;-87
2022/10/23 10:54:11;;;;;;;10.20;3.22;;;;;;;16.18;92.62;100681.84;5011981;28;20021;-87
2022/10/23 10:56:40;;;;;;;9.55;2.92;;;;;;;16.30;91.63;100677.94;5026322;28;20024;-85
2022/10/23 10:59:38;;;;;;;5.55;2.85;;;;;;;16.41;92.16;100674.22;5017700;28;20119;-86
2022/10/23 11:02:33;;;;;;;8.63;3.33;;;;;;;16.56;91.92;100680.63;5028491;28;20497;-86
2022/10/23 11:05:12;;;;;;;7.18;3.00;;;;;;;16.62;90.07;100681.81;5014203;28;20025;-85
2022/10/23 11:07:50;;;;;;;9.00;3.45;;;;;;;16.75;90.30;100671.63;5014465;28;20029;-87
2022/10/23 11:10:17;;;;;;;5.35;3.00;;;;;;;16.79;88.60;100670.31;5027406;28;20477;-86
2022/10/23 11:12:45;;;;;;;10.13;3.15;;;;;;;16.78;88.39;100655.38;5031281;28;20072;-86
2022/10/23 11:15:14;;;;;;;9.38;3.42;;;;;;;16.83;87.79;100665.56;5030450;28;20482;-86
2022/10/23 11:17:46;;;;;;;9.35;3.92;;;;;;;16.89;87.61;100663.09;5031694;28;20025;-86
2022/10/23 11:20:27;;;;;;;11.47;3.33;;;;;;;16.99;87.90;100672.75;5030132;28;20025;-86
2022/10/23 11:22:58;;;;;;;9.85;3.22;;;;;;;17.03;87.47;100663.47;5032350;28;20814;-86
2022/10/23 11:25:42;;;;;;;9.35;3.38;;;;;;;17.11;87.86;100652.88;5031833;28;20155;-86
2022/10/23 11:28:41;;;;;;;6.05;3.00;;;;;;;17.15;87.59;100648.88;5027035;28;20022;-86
2022/10/23 11:31:44;;;;;;;7.78;3.13;;;;;;;17.20;87.75;100643.91;5029610;28;20389;-86